sensor_id;sensor_type;location;lat;lon;timestamp;temperature;humidity
18073;DHT22;9161;47.348;9.648;2023-09-19T00:02:24;16.50;99.90
18073;DHT22;9161;47.348;9.648;2023-09-19T00:07:27;16.50;99.90
18073;DHT22;9161;47.348;9.648;2023-09-19T00:12:30;16.40;99.90
18073;DHT22;9161;47.348;9.648;2023-09-19T00:17:33;16.30;99.90
18073;DHT22;9161;47.348;9.648;2023-09-19T00:22:35;16.10;99.90
18073;DHT22;9161;47.348;9.648;2023-09-19T00:27:42;16.10;99.90
18073;DHT22;9161;47.348;9.648;2023-09-19T00:32:46;16.00;99.90
18073;DHT22;9161;47.348;9.648;2023-09-19T00:37:48;16.00;99.90
18073;DHT22;9161;47.348;9.648;2023-09-19T00:42:51;16.00;99.90
18073;DHT22;9161;47.348;9.648;2023-09-19T00:47:55;16.00;99.90
18073;DHT22;9161;47.348;9.648;2023-09-19T00:52:59;16.00;99.90
18073;DHT22;9161;47.348;9.648;2023-09-19T00:58:03;16.00;99.90
18073;DHT22;9161;47.348;9.648;2023-09-19T01:03:06;16.00;99.90
18073;DHT22;9161;47.348;9.648;2023-09-19T01:08:11;16.00;99.90
18073;DHT22;9161;47.348;9.648;2023-09-19T01:13:21;16.00;99.90
18073;DHT22;9161;47.348;9.648;2023-09-19T01:18:39;16.00;99.90
18073;DHT22;9161;47.348;9.648;2023-09-19T01:29:26;16.00;99.90
18073;DHT22;9161;47.348;9.648;2023-09-19T01:34:49;16.10;99.90
18073;DHT22;9161;47.348;9.648;2023-09-19T01:39:55;16.10;99.90
18073;DHT22;9161;47.348;9.648;2023-09-19T01:45:03;16.00;99.90
18073;DHT22;9161;47.348;9.648;2023-09-19T01:50:20;16.00;99.90
18073;DHT22;9161;47.348;9.648;2023-09-19T01:55:26;16.00;99.90
18073;DHT22;9161;47.348;9.648;2023-09-19T02:00:31;16.00;99.90
18073;DHT22;9161;47.348;9.648;2023-09-19T02:05:37;16.00;99.90
18073;DHT22;9161;47.348;9.648;2023-09-19T02:10:40;16.00;99.90
18073;DHT22;9161;47.348;9.648;2023-09-19T02:15:42;16.10;99.90
18073;DHT22;9161;47.348;9.648;2023-09-19T02:20:47;16.10;99.90
18073;DHT22;9161;47.348;9.648;2023-09-19T02:25:53;16.20;99.90
18073;DHT22;9161;47.348;9.648;2023-09-19T02:30:56;16.20;99.90
18073;DHT22;9161;47.348;9.648;2023-09-19T02:36:00;16.20;99.90
18073;DHT22;9161;47.348;9.648;2023-09-19T02:41:06;16.20;99.90
18073;DHT22;9161;47.348;9.648;2023-09-19T02:46:08;16.10;99.90
18073;DHT22;9161;47.348;9.648;2023-09-19T02:51:14;16.10;99.90
18073;DHT22;9161;47.348;9.648;2023-09-19T02:56:16;15.90;99.90
18073;DHT22;9161;47.348;9.648;2023-09-19T03:01:19;16.00;99.90
18073;DHT22;9161;47.348;9.648;2023-09-19T03:06:24;16.10;99.90
18073;DHT22;9161;47.348;9.648;2023-09-19T03:11:26;16.10;99.90
18073;DHT22;9161;47.348;9.648;2023-09-19T03:16:29;16.10;99.90
18073;DHT22;9161;47.348;9.648;2023-09-19T03:21:33;16.10;99.90
18073;DHT22;9161;47.348;9.648;2023-09-19T03:26:36;16.10;99.90
18073;DHT22;9161;47.348;9.648;2023-09-19T03:31:39;16.20;99.90
18073;DHT22;9161;47.348;9.648;2023-09-19T03:36:42;16.20;99.90
18073;DHT22;9161;47.348;9.648;2023-09-19T03:41:44;16.20;99.90
18073;DHT22;9161;47.348;9.648;2023-09-19T03:46:47;16.00;99.90
18073;DHT22;9161;47.348;9.648;2023-09-19T03:51:51;16.00;99.90
18073;DHT22;9161;47.348;9.648;2023-09-19T03:56:54;15.90;99.90
18073;DHT22;9161;47.348;9.648;2023-09-19T04:01:56;15.90;99.90
18073;DHT22;9161;47.348;9.648;2023-09-19T04:07:00;15.80;99.90
18073;DHT22;9161;47.348;9.648;2023-09-19T04:12:04;15.80;99.90
18073;DHT22;9161;47.348;9.648;2023-09-19T04:17:06;15.80;99.90
18073;DHT22;9161;47.348;9.648;2023-09-19T04:22:12;15.80;99.90
18073;DHT22;9161;47.348;9.648;2023-09-19T04:27:14;15.80;99.90
18073;DHT22;9161;47.348;9.648;2023-09-19T04:32:16;15.70;99.90
18073;DHT22;9161;47.348;9.648;2023-09-19T04:37:20;15.60;99.90
18073;DHT22;9161;47.348;9.648;2023-09-19T04:42:23;15.60;99.90
18073;DHT22;9161;47.348;9.648;2023-09-19T04:47:25;15.60;99.90
18073;DHT22;9161;47.348;9.648;2023-09-19T04:52:32;15.60;99.90
18073;DHT22;9161;47.348;9.648;2023-09-19T04:57:35;15.70;99.90
18073;DHT22;9161;47.348;9.648;2023-09-19T05:02:40;15.70;99.90
18073;DHT22;9161;47.348;9.648;2023-09-19T05:07:44;15.70;99.90
18073;DHT22;9161;47.348;9.648;2023-09-19T05:12:48;15.90;99.90
18073;DHT22;9161;47.348;9.648;2023-09-19T05:17:52;15.90;99.90
18073;DHT22;9161;47.348;9.648;2023-09-19T05:23:01;15.90;99.90
18073;DHT22;9161;47.348;9.648;2023-09-19T05:28:07;15.80;99.90
18073;DHT22;9161;47.348;9.648;2023-09-19T05:33:11;15.80;99.90
18073;DHT22;9161;47.348;9.648;2023-09-19T05:38:16;15.80;99.90
18073;DHT22;9161;47.348;9.648;2023-09-19T05:43:21;15.80;99.90
18073;DHT22;9161;47.348;9.648;2023-09-19T05:48:24;15.90;99.90
18073;DHT22;9161;47.348;9.648;2023-09-19T05:53:28;16.00;99.90
18073;DHT22;9161;47.348;9.648;2023-09-19T05:58:30;16.00;99.90
18073;DHT22;9161;47.348;9.648;2023-09-19T06:03:33;16.00;99.90
18073;DHT22;9161;47.348;9.648;2023-09-19T06:08:37;16.10;99.90
18073;DHT22;9161;47.348;9.648;2023-09-19T06:13:39;16.20;99.90
18073;DHT22;9161;47.348;9.648;2023-09-19T06:18:42;16.30;99.90
18073;DHT22;9161;47.348;9.648;2023-09-19T06:23:45;16.40;99.90
18073;DHT22;9161;47.348;9.648;2023-09-19T06:28:48;16.50;99.90
18073;DHT22;9161;47.348;9.648;2023-09-19T06:33:52;16.30;99.90
18073;DHT22;9161;47.348;9.648;2023-09-19T06:38:56;16.30;99.90
18073;DHT22;9161;47.348;9.648;2023-09-19T06:44:00;16.20;99.90
18073;DHT22;9161;47.348;9.648;2023-09-19T06:49:04;16.20;99.90
18073;DHT22;9161;47.348;9.648;2023-09-19T06:54:09;16.30;99.90
18073;DHT22;9161;47.348;9.648;2023-09-19T06:59:12;16.30;99.90
18073;DHT22;9161;47.348;9.648;2023-09-19T07:04:15;16.50;99.90
18073;DHT22;9161;47.348;9.648;2023-09-19T07:09:19;16.40;99.90
18073;DHT22;9161;47.348;9.648;2023-09-19T07:14:22;16.60;99.90
18073;DHT22;9161;47.348;9.648;2023-09-19T07:19:25;16.40;99.90
18073;DHT22;9161;47.348;9.648;2023-09-19T07:24:30;16.50;99.90
18073;DHT22;9161;47.348;9.648;2023-09-19T07:29:33;16.70;99.90
18073;DHT22;9161;47.348;9.648;2023-09-19T07:34:35;16.90;99.90
18073;DHT22;9161;47.348;9.648;2023-09-19T07:39:38;16.90;99.90
18073;DHT22;9161;47.348;9.648;2023-09-19T07:44:42;17.20;99.90
18073;DHT22;9161;47.348;9.648;2023-09-19T07:49:48;17.20;99.90
18073;DHT22;9161;47.348;9.648;2023-09-19T07:54:53;17.20;99.90
18073;DHT22;9161;47.348;9.648;2023-09-19T07:59:58;17.20;99.90
18073;DHT22;9161;47.348;9.648;2023-09-19T08:05:01;17.40;99.90
18073;DHT22;9161;47.348;9.648;2023-09-19T08:10:10;18.20;99.90
18073;DHT22;9161;47.348;9.648;2023-09-19T08:15:14;17.40;99.90
18073;DHT22;9161;47.348;9.648;2023-09-19T08:20:16;17.70;99.90
18073;DHT22;9161;47.348;9.648;2023-09-19T08:25:21;17.80;99.90
18073;DHT22;9161;47.348;9.648;2023-09-19T08:30:24;18.20;99.90
18073;DHT22;9161;47.348;9.648;2023-09-19T08:35:28;18.60;99.90
18073;DHT22;9161;47.348;9.648;2023-09-19T08:40:37;18.60;99.90
18073;DHT22;9161;47.348;9.648;2023-09-19T08:45:41;18.60;99.90
18073;DHT22;9161;47.348;9.648;2023-09-19T08:50:49;18.70;99.90
18073;DHT22;9161;47.348;9.648;2023-09-19T08:55:54;18.50;99.90
18073;DHT22;9161;47.348;9.648;2023-09-19T09:00:58;18.50;99.90
18073;DHT22;9161;47.348;9.648;2023-09-19T09:06:03;18.60;99.90
18073;DHT22;9161;47.348;9.648;2023-09-19T09:11:06;18.30;99.90
18073;DHT22;9161;47.348;9.648;2023-09-19T09:16:08;18.00;99.90
18073;DHT22;9161;47.348;9.648;2023-09-19T09:21:12;18.00;99.90
18073;DHT22;9161;47.348;9.648;2023-09-19T09:31:40;18.30;99.90
18073;DHT22;9161;47.348;9.648;2023-09-19T09:36:48;18.90;99.90
18073;DHT22;9161;47.348;9.648;2023-09-19T09:41:55;19.40;99.90
18073;DHT22;9161;47.348;9.648;2023-09-19T09:47:00;19.70;99.90
18073;DHT22;9161;47.348;9.648;2023-09-19T09:52:16;19.80;99.90
18073;DHT22;9161;47.348;9.648;2023-09-19T09:57:21;20.00;99.90
18073;DHT22;9161;47.348;9.648;2023-09-19T10:02:28;20.10;99.90
18073;DHT22;9161;47.348;9.648;2023-09-19T10:07:34;19.80;99.90
18073;DHT22;9161;47.348;9.648;2023-09-19T10:12:45;20.00;99.90
18073;DHT22;9161;47.348;9.648;2023-09-19T10:17:49;21.10;99.90
18073;DHT22;9161;47.348;9.648;2023-09-19T10:23:06;23.00;99.90
18073;DHT22;9161;47.348;9.648;2023-09-19T10:28:13;22.80;99.90
18073;DHT22;9161;47.348;9.648;2023-09-19T10:33:18;23.30;99.90
18073;DHT22;9161;47.348;9.648;2023-09-19T10:38:25;23.10;99.90
18073;DHT22;9161;47.348;9.648;2023-09-19T10:43:32;22.40;99.90
18073;DHT22;9161;47.348;9.648;2023-09-19T10:48:37;22.60;99.90
18073;DHT22;9161;47.348;9.648;2023-09-19T10:53:45;23.80;99.90
18073;DHT22;9161;47.348;9.648;2023-09-19T10:58:50;25.20;99.90
18073;DHT22;9161;47.348;9.648;2023-09-19T11:04:20;25.50;99.90
18073;DHT22;9161;47.348;9.648;2023-09-19T11:09:43;25.00;99.90
18073;DHT22;9161;47.348;9.648;2023-09-19T11:14:46;25.40;99.90
18073;DHT22;9161;47.348;9.648;2023-09-19T11:20:19;25.20;99.90
18073;DHT22;9161;47.348;9.648;2023-09-19T11:25:44;25.80;99.90
18073;DHT22;9161;47.348;9.648;2023-09-19T11:30:52;26.90;99.90
18073;DHT22;9161;47.348;9.648;2023-09-19T11:36:02;27.10;99.90
18073;DHT22;9161;47.348;9.648;2023-09-19T11:41:40;29.10;99.90
18073;DHT22;9161;47.348;9.648;2023-09-19T11:46:53;28.90;99.90
18073;DHT22;9161;47.348;9.648;2023-09-19T11:51:58;29.00;99.90
18073;DHT22;9161;47.348;9.648;2023-09-19T11:57:04;29.40;99.90
18073;DHT22;9161;47.348;9.648;2023-09-19T12:02:11;27.80;99.90
18073;DHT22;9161;47.348;9.648;2023-09-19T12:07:19;28.40;99.90
18073;DHT22;9161;47.348;9.648;2023-09-19T12:12:27;28.60;99.90
18073;DHT22;9161;47.348;9.648;2023-09-19T12:17:54;29.00;99.90
18073;DHT22;9161;47.348;9.648;2023-09-19T12:23:22;28.60;99.90
18073;DHT22;9161;47.348;9.648;2023-09-19T12:28:44;27.00;99.90
18073;DHT22;9161;47.348;9.648;2023-09-19T12:33:54;27.80;99.90
18073;DHT22;9161;47.348;9.648;2023-09-19T12:38:58;28.20;99.90
18073;DHT22;9161;47.348;9.648;2023-09-19T12:44:02;29.50;99.90
18073;DHT22;9161;47.348;9.648;2023-09-19T12:49:17;30.10;99.90
18073;DHT22;9161;47.348;9.648;2023-09-19T12:54:20;29.90;99.90
18073;DHT22;9161;47.348;9.648;2023-09-19T12:59:30;31.70;99.90
18073;DHT22;9161;47.348;9.648;2023-09-19T13:04:33;31.50;99.90
18073;DHT22;9161;47.348;9.648;2023-09-19T13:10:04;31.10;99.90
18073;DHT22;9161;47.348;9.648;2023-09-19T13:15:10;31.00;99.90
18073;DHT22;9161;47.348;9.648;2023-09-19T13:20:22;31.00;99.90
18073;DHT22;9161;47.348;9.648;2023-09-19T13:25:29;32.00;99.90
18073;DHT22;9161;47.348;9.648;2023-09-19T13:30:38;34.10;98.50
18073;DHT22;9161;47.348;9.648;2023-09-19T13:35:43;32.60;97.30
18073;DHT22;9161;47.348;9.648;2023-09-19T13:40:45;34.30;97.50
18073;DHT22;9161;47.348;9.648;2023-09-19T13:45:49;33.50;97.30
18073;DHT22;9161;47.348;9.648;2023-09-19T13:50:51;33.30;96.90
18073;DHT22;9161;47.348;9.648;2023-09-19T13:55:54;33.80;97.50
18073;DHT22;9161;47.348;9.648;2023-09-19T14:00:59;33.90;95.50
18073;DHT22;9161;47.348;9.648;2023-09-19T14:06:03;34.10;95.40
18073;DHT22;9161;47.348;9.648;2023-09-19T14:11:07;34.40;95.30
18073;DHT22;9161;47.348;9.648;2023-09-19T14:16:12;34.30;95.40
18073;DHT22;9161;47.348;9.648;2023-09-19T14:21:14;33.30;94.20
18073;DHT22;9161;47.348;9.648;2023-09-19T14:26:17;33.70;94.90
18073;DHT22;9161;47.348;9.648;2023-09-19T14:31:22;34.10;95.00
18073;DHT22;9161;47.348;9.648;2023-09-19T14:36:26;33.00;92.80
18073;DHT22;9161;47.348;9.648;2023-09-19T14:41:29;33.40;94.00
18073;DHT22;9161;47.348;9.648;2023-09-19T14:46:35;33.30;94.00
18073;DHT22;9161;47.348;9.648;2023-09-19T14:51:39;32.90;92.70
18073;DHT22;9161;47.348;9.648;2023-09-19T14:56:42;32.80;93.50
18073;DHT22;9161;47.348;9.648;2023-09-19T15:01:47;32.40;92.90
18073;DHT22;9161;47.348;9.648;2023-09-19T15:06:52;32.40;92.90
18073;DHT22;9161;47.348;9.648;2023-09-19T15:11:57;32.40;93.50
18073;DHT22;9161;47.348;9.648;2023-09-19T15:17:04;31.40;93.50
18073;DHT22;9161;47.348;9.648;2023-09-19T15:22:10;30.90;93.80
18073;DHT22;9161;47.348;9.648;2023-09-19T15:27:15;29.70;94.70
18073;DHT22;9161;47.348;9.648;2023-09-19T15:32:24;28.20;94.90
18073;DHT22;9161;47.348;9.648;2023-09-19T15:37:29;26.80;96.00
18073;DHT22;9161;47.348;9.648;2023-09-19T15:42:36;27.80;96.40
18073;DHT22;9161;47.348;9.648;2023-09-19T15:47:43;28.20;97.80
18073;DHT22;9161;47.348;9.648;2023-09-19T15:52:54;28.10;96.90
18073;DHT22;9161;47.348;9.648;2023-09-19T15:58:02;27.80;97.30
18073;DHT22;9161;47.348;9.648;2023-09-19T16:03:12;27.20;98.30
18073;DHT22;9161;47.348;9.648;2023-09-19T16:08:18;27.00;97.10
18073;DHT22;9161;47.348;9.648;2023-09-19T16:13:24;26.50;99.90
18073;DHT22;9161;47.348;9.648;2023-09-19T16:18:36;26.00;99.90
18073;DHT22;9161;47.348;9.648;2023-09-19T16:23:45;25.90;99.90
18073;DHT22;9161;47.348;9.648;2023-09-19T16:28:52;25.70;99.90
18073;DHT22;9161;47.348;9.648;2023-09-19T16:33:59;24.80;99.90
18073;DHT22;9161;47.348;9.648;2023-09-19T16:39:05;24.40;99.90
18073;DHT22;9161;47.348;9.648;2023-09-19T16:44:11;23.70;99.90
18073;DHT22;9161;47.348;9.648;2023-09-19T16:49:18;23.10;99.90
18073;DHT22;9161;47.348;9.648;2023-09-19T16:54:24;22.80;99.90
18073;DHT22;9161;47.348;9.648;2023-09-19T16:59:32;22.70;99.90
18073;DHT22;9161;47.348;9.648;2023-09-19T17:04:39;22.40;99.90
18073;DHT22;9161;47.348;9.648;2023-09-19T17:09:44;22.00;99.90
18073;DHT22;9161;47.348;9.648;2023-09-19T17:14:51;21.60;99.90
18073;DHT22;9161;47.348;9.648;2023-09-19T17:20:04;21.20;99.90
18073;DHT22;9161;47.348;9.648;2023-09-19T17:25:11;20.90;99.90
18073;DHT22;9161;47.348;9.648;2023-09-19T17:30:18;20.40;99.90
18073;DHT22;9161;47.348;9.648;2023-09-19T17:35:27;20.10;99.90
18073;DHT22;9161;47.348;9.648;2023-09-19T17:40:41;19.90;99.90
18073;DHT22;9161;47.348;9.648;2023-09-19T17:45:51;19.60;99.90
18073;DHT22;9161;47.348;9.648;2023-09-19T17:51:02;19.40;99.90
18073;DHT22;9161;47.348;9.648;2023-09-19T17:56:12;19.20;99.90
18073;DHT22;9161;47.348;9.648;2023-09-19T18:01:22;19.00;99.90
18073;DHT22;9161;47.348;9.648;2023-09-19T18:06:42;18.80;99.90
18073;DHT22;9161;47.348;9.648;2023-09-19T18:11:50;18.60;99.90
18073;DHT22;9161;47.348;9.648;2023-09-19T18:16:56;18.30;99.90
18073;DHT22;9161;47.348;9.648;2023-09-19T18:22:07;18.20;99.90
18073;DHT22;9161;47.348;9.648;2023-09-19T18:27:21;18.10;99.90
18073;DHT22;9161;47.348;9.648;2023-09-19T18:32:30;18.00;99.90
18073;DHT22;9161;47.348;9.648;2023-09-19T18:37:38;17.90;99.90
18073;DHT22;9161;47.348;9.648;2023-09-19T18:42:48;17.70;99.90
18073;DHT22;9161;47.348;9.648;2023-09-19T18:47:55;17.60;99.90
18073;DHT22;9161;47.348;9.648;2023-09-19T18:53:09;17.50;99.90
18073;DHT22;9161;47.348;9.648;2023-09-19T18:58:15;17.40;99.90
18073;DHT22;9161;47.348;9.648;2023-09-19T19:03:22;17.30;99.90
18073;DHT22;9161;47.348;9.648;2023-09-19T19:08:36;17.20;99.90
18073;DHT22;9161;47.348;9.648;2023-09-19T19:13:45;17.10;99.90
18073;DHT22;9161;47.348;9.648;2023-09-19T19:18:57;16.90;99.90
18073;DHT22;9161;47.348;9.648;2023-09-19T19:24:05;16.70;99.90
18073;DHT22;9161;47.348;9.648;2023-09-19T19:29:13;16.60;99.90
18073;DHT22;9161;47.348;9.648;2023-09-19T19:34:19;16.80;99.90
18073;DHT22;9161;47.348;9.648;2023-09-19T19:39:28;16.60;99.90
18073;DHT22;9161;47.348;9.648;2023-09-19T19:44:35;16.50;99.90
18073;DHT22;9161;47.348;9.648;2023-09-19T19:49:41;16.70;99.90
18073;DHT22;9161;47.348;9.648;2023-09-19T19:54:51;16.60;99.90
18073;DHT22;9161;47.348;9.648;2023-09-19T19:59:59;16.70;99.90
18073;DHT22;9161;47.348;9.648;2023-09-19T20:05:05;16.60;99.90
18073;DHT22;9161;47.348;9.648;2023-09-19T20:10:15;16.70;99.90
18073;DHT22;9161;47.348;9.648;2023-09-19T20:15:24;16.60;99.90
18073;DHT22;9161;47.348;9.648;2023-09-19T20:20:35;16.40;99.90
18073;DHT22;9161;47.348;9.648;2023-09-19T20:25:44;16.30;99.90
18073;DHT22;9161;47.348;9.648;2023-09-19T20:30:50;16.10;99.90
18073;DHT22;9161;47.348;9.648;2023-09-19T20:35:58;16.00;99.90
18073;DHT22;9161;47.348;9.648;2023-09-19T20:41:09;15.90;99.90
18073;DHT22;9161;47.348;9.648;2023-09-19T20:46:15;15.70;99.90
18073;DHT22;9161;47.348;9.648;2023-09-19T20:51:21;15.60;99.90
18073;DHT22;9161;47.348;9.648;2023-09-19T20:56:32;15.50;99.90
18073;DHT22;9161;47.348;9.648;2023-09-19T21:01:37;15.50;99.90
18073;DHT22;9161;47.348;9.648;2023-09-19T21:06:41;15.40;99.90
18073;DHT22;9161;47.348;9.648;2023-09-19T21:11:48;15.30;99.90
18073;DHT22;9161;47.348;9.648;2023-09-19T21:16:51;15.20;99.90
18073;DHT22;9161;47.348;9.648;2023-09-19T21:21:53;15.20;99.90
18073;DHT22;9161;47.348;9.648;2023-09-19T21:26:59;15.20;99.90
18073;DHT22;9161;47.348;9.648;2023-09-19T21:32:05;15.20;99.90
18073;DHT22;9161;47.348;9.648;2023-09-19T21:37:09;15.10;99.90
18073;DHT22;9161;47.348;9.648;2023-09-19T21:42:16;15.00;99.90
18073;DHT22;9161;47.348;9.648;2023-09-19T21:47:18;15.10;99.90
18073;DHT22;9161;47.348;9.648;2023-09-19T21:52:21;15.10;99.90
18073;DHT22;9161;47.348;9.648;2023-09-19T21:57:24;15.10;99.90
18073;DHT22;9161;47.348;9.648;2023-09-19T22:02:28;15.00;99.90
18073;DHT22;9161;47.348;9.648;2023-09-19T22:07:33;15.10;99.90
18073;DHT22;9161;47.348;9.648;2023-09-19T22:12:36;15.40;99.90
18073;DHT22;9161;47.348;9.648;2023-09-19T22:17:40;15.50;99.90
18073;DHT22;9161;47.348;9.648;2023-09-19T22:22:44;15.60;99.90
18073;DHT22;9161;47.348;9.648;2023-09-19T22:27:50;15.50;99.90
18073;DHT22;9161;47.348;9.648;2023-09-19T22:32:54;15.60;99.90
18073;DHT22;9161;47.348;9.648;2023-09-19T22:37:57;15.80;99.90
18073;DHT22;9161;47.348;9.648;2023-09-19T22:43:16;15.90;99.90
18073;DHT22;9161;47.348;9.648;2023-09-19T22:48:18;16.00;99.90
18073;DHT22;9161;47.348;9.648;2023-09-19T22:53:24;16.00;99.90
18073;DHT22;9161;47.348;9.648;2023-09-19T22:58:30;16.00;99.90
18073;DHT22;9161;47.348;9.648;2023-09-19T23:03:33;16.10;99.90
18073;DHT22;9161;47.348;9.648;2023-09-19T23:08:37;16.00;99.90
18073;DHT22;9161;47.348;9.648;2023-09-19T23:13:42;15.90;99.90
18073;DHT22;9161;47.348;9.648;2023-09-19T23:18:46;16.00;99.90
18073;DHT22;9161;47.348;9.648;2023-09-19T23:23:51;16.20;99.90
18073;DHT22;9161;47.348;9.648;2023-09-19T23:28:55;16.20;99.90
18073;DHT22;9161;47.348;9.648;2023-09-19T23:33:58;16.30;99.90
18073;DHT22;9161;47.348;9.648;2023-09-19T23:39:01;16.30;99.90
18073;DHT22;9161;47.348;9.648;2023-09-19T23:44:08;16.30;99.90
18073;DHT22;9161;47.348;9.648;2023-09-19T23:49:11;16.30;99.90
18073;DHT22;9161;47.348;9.648;2023-09-19T23:54:14;16.20;99.90
18073;DHT22;9161;47.348;9.648;2023-09-19T23:59:25;16.00;99.90
